Time;durP1;ratioP1;P1;durP2;ratioP2;P2;SDS_P1;SDS_P2;PMS_P1;PMS_P2;Temp;Humidity;BMP_temperature;BMP_pressure;BME280_temperature;BME280_humidity;BME280_pressure;Samples;Min_cycle;Max_cycle;Signal;HPM_P1;HPM_P2
2024/02/16 00:01:19;;;;;;;8.95;6.13;;;;;;;;;;5048667;28;20211;-70
2024/02/16 00:03:47;;;;;;;9.43;6.72;;;;;;;;;;5056992;28;20438;-69
2024/02/16 00:06:17;;;;;;;8.53;6.17;;;;;;;;;;5048527;28;20663;-69
2024/02/16 00:08:45;;;;;;;7.90;7.10;;;;;;;;;;5048990;28;20586;-70
2024/02/16 00:11:13;;;;;;;8.07;6.80;;;;;;;;;;5050623;28;21433;-70
2024/02/16 00:13:41;;;;;;;10.00;7.55;;;;;;;;;;5069076;28;20591;-69
2024/02/16 00:16:09;;;;;;;7.53;6.00;;;;;;;;;;5068227;28;20196;-69
2024/02/16 00:18:38;;;;;;;9.70;7.10;;;;;;;;;;5068629;28;21201;-69
2024/02/16 00:21:06;;;;;;;7.80;6.67;;;;;;;;;;5068243;28;21237;-70
2024/02/16 00:23:36;;;;;;;7.83;6.97;;;;;;;;;;5068816;28;21337;-70
2024/02/16 00:26:07;;;;;;;7.93;7.10;;;;;;;;;;5069315;28;20600;-70
2024/02/16 00:28:35;;;;;;;8.75;7.35;;;;;;;;;;5069432;28;20553;-70
2024/02/16 00:31:05;;;;;;;12.33;6.97;;;;;;;;;;5068623;28;20369;-69
2024/02/16 00:33:33;;;;;;;7.70;6.70;;;;;;;;;;5062972;28;20574;-69
2024/02/16 00:36:01;;;;;;;15.43;7.17;;;;;;;;;;5066034;28;21150;-69
2024/02/16 00:38:30;;;;;;;13.63;7.87;;;;;;;;;;5068607;28;20636;-69
2024/02/16 00:41:00;;;;;;;9.95;6.82;;;;;;;;;;5068194;28;20616;-69
2024/02/16 00:43:28;;;;;;;10.98;7.53;;;;;;;;;;5068012;28;20234;-68
2024/02/16 00:45:56;;;;;;;6.80;6.20;;;;;;;;;;5064927;28;20204;-69
2024/02/16 00:48:25;;;;;;;10.07;7.38;;;;;;;;;;5068629;28;20581;-70
2024/02/16 00:50:53;;;;;;;10.23;6.65;;;;;;;;;;5068547;28;20218;-70
2024/02/16 00:53:21;;;;;;;8.70;6.32;;;;;;;;;;5068358;28;20206;-70
2024/02/16 00:55:49;;;;;;;12.57;6.60;;;;;;;;;;5065922;28;20208;-70
2024/02/16 00:58:20;;;;;;;8.13;6.70;;;;;;;;;;5068164;28;20219;-70
2024/02/16 01:00:48;;;;;;;8.93;6.10;;;;;;;;;;5055268;28;20700;-70
2024/02/16 01:03:17;;;;;;;7.43;6.50;;;;;;;;;;5067097;28;21197;-69
2024/02/16 01:05:45;;;;;;;9.70;6.43;;;;;;;;;;5056569;28;20604;-70
2024/02/16 01:08:13;;;;;;;6.13;5.63;;;;;;;;;;5047786;28;20615;-70
2024/02/16 01:10:41;;;;;;;9.60;6.50;;;;;;;;;;5048323;28;20545;-70
2024/02/16 01:13:10;;;;;;;7.85;6.35;;;;;;;;;;5047080;28;20615;-69
2024/02/16 01:15:41;;;;;;;9.17;7.37;;;;;;;;;;5062286;28;20471;-69
2024/02/16 01:18:09;;;;;;;7.93;5.90;;;;;;;;;;5067544;28;20613;-70
2024/02/16 01:20:37;;;;;;;13.07;6.70;;;;;;;;;;5051816;28;20231;-70
2024/02/16 01:23:05;;;;;;;9.60;6.20;;;;;;;;;;5052886;28;20196;-70
2024/02/16 01:25:34;;;;;;;8.45;6.35;;;;;;;;;;5066308;28;20226;-69
2024/02/16 01:28:02;;;;;;;10.00;6.22;;;;;;;;;;5048739;28;20188;-70
2024/02/16 01:30:30;;;;;;;6.75;5.75;;;;;;;;;;5066130;28;20200;-70
2024/02/16 01:33:00;;;;;;;9.80;6.40;;;;;;;;;;5053128;28;20808;-69
2024/02/16 01:35:28;;;;;;;7.03;6.32;;;;;;;;;;5067707;28;20208;-69
2024/02/16 01:37:56;;;;;;;6.88;6.18;;;;;;;;;;5062947;28;20268;-70
2024/02/16 01:40:26;;;;;;;8.45;6.60;;;;;;;;;;5046663;28;20212;-70
2024/02/16 01:42:54;;;;;;;33.00;8.20;;;;;;;;;;5054773;28;20219;-69
2024/02/16 01:45:23;;;;;;;7.38;6.30;;;;;;;;;;5067045;28;20198;-70
2024/02/16 01:47:52;;;;;;;9.40;6.23;;;;;;;;;;5046998;28;20196;-70
2024/02/16 01:50:23;;;;;;;11.63;6.28;;;;;;;;;;5047899;28;20628;-70
2024/02/16 01:52:51;;;;;;;10.20;6.05;;;;;;;;;;5046605;28;20192;-70
2024/02/16 01:55:21;;;;;;;8.63;5.70;;;;;;;;;;5054181;28;20196;-69
2024/02/16 01:57:50;;;;;;;7.60;6.10;;;;;;;;;;5051676;28;20220;-70
2024/02/16 02:00:18;;;;;;;7.05;6.22;;;;;;;;;;5062083;28;21077;-70
2024/02/16 02:02:47;;;;;;;7.68;6.07;;;;;;;;;;5048722;28;20208;-70
2024/02/16 02:05:15;;;;;;;6.03;5.43;;;;;;;;;;5065101;28;20264;-70
2024/02/16 02:07:45;;;;;;;6.30;5.70;;;;;;;;;;5061509;28;20686;-69
2024/02/16 02:10:14;;;;;;;9.37;6.10;;;;;;;;;;5048286;28;20624;-69
2024/02/16 02:12:42;;;;;;;12.43;6.13;;;;;;;;;;5046091;28;20602;-68
2024/02/16 02:15:11;;;;;;;7.20;6.20;;;;;;;;;;5046520;28;20627;-69
2024/02/16 02:17:40;;;;;;;6.25;5.65;;;;;;;;;;5047905;28;20212;-68
2024/02/16 02:20:10;;;;;;;8.98;6.03;;;;;;;;;;5046899;28;20212;-68
2024/02/16 02:22:40;;;;;;;7.88;6.03;;;;;;;;;;5045628;28;20245;-68
2024/02/16 02:25:10;;;;;;;10.70;6.40;;;;;;;;;;5054903;28;20199;-68
2024/02/16 02:27:38;;;;;;;9.57;6.50;;;;;;;;;;5065507;28;20196;-69
2024/02/16 02:30:07;;;;;;;12.65;9.60;;;;;;;;;;5056071;28;20619;-69
2024/02/16 02:32:35;;;;;;;10.20;8.80;;;;;;;;;;5065763;28;20199;-69
2024/02/16 02:35:04;;;;;;;15.52;10.15;;;;;;;;;;5066500;28;20628;-69
2024/02/16 02:37:32;;;;;;;13.75;9.70;;;;;;;;;;5055524;28;20197;-69
2024/02/16 02:40:05;;;;;;;13.63;8.55;;;;;;;;;;5058255;28;20203;-69
2024/02/16 02:42:34;;;;;;;15.18;10.00;;;;;;;;;;5066379;28;20198;-69
2024/02/16 02:45:02;;;;;;;18.27;9.10;;;;;;;;;;5059544;28;20195;-69
2024/02/16 02:47:30;;;;;;;18.00;8.50;;;;;;;;;;5049912;28;20601;-69
2024/02/16 02:49:59;;;;;;;12.05;7.32;;;;;;;;;;5052145;28;21168;-68
2024/02/16 02:52:27;;;;;;;11.98;6.75;;;;;;;;;;5056057;28;20201;-69
2024/02/16 02:54:55;;;;;;;12.57;6.60;;;;;;;;;;5057978;28;20200;-69
2024/02/16 02:57:25;;;;;;;11.00;6.45;;;;;;;;;;5047911;28;20203;-69
2024/02/16 02:59:53;;;;;;;10.23;6.45;;;;;;;;;;5047016;28;20235;-68
2024/02/16 03:02:21;;;;;;;10.18;7.53;;;;;;;;;;5061873;28;20200;-69
2024/02/16 03:04:49;;;;;;;13.52;8.32;;;;;;;;;;5066945;28;20204;-69
2024/02/16 03:07:18;;;;;;;8.83;7.60;;;;;;;;;;5051254;28;20211;-69
2024/02/16 03:09:46;;;;;;;7.80;6.93;;;;;;;;;;5059385;28;20664;-68
2024/02/16 03:12:14;;;;;;;11.75;7.32;;;;;;;;;;5053609;28;20690;-69
2024/02/16 03:14:44;;;;;;;14.02;8.13;;;;;;;;;;5052856;28;20204;-69
2024/02/16 03:17:12;;;;;;;8.73;7.53;;;;;;;;;;5050532;28;20208;-69
2024/02/16 03:19:40;;;;;;;9.50;8.30;;;;;;;;;;5055397;28;20519;-69
2024/02/16 03:22:08;;;;;;;15.60;8.90;;;;;;;;;;5053543;28;20622;-70
2024/02/16 03:24:36;;;;;;;11.05;8.40;;;;;;;;;;5054920;28;20546;-70
2024/02/16 03:27:05;;;;;;;8.80;7.95;;;;;;;;;;5058981;28;20193;-69
2024/02/16 03:29:33;;;;;;;14.45;9.32;;;;;;;;;;5057937;28;20188;-69
2024/02/16 03:32:03;;;;;;;12.50;8.63;;;;;;;;;;5049729;28;20204;-69
2024/02/16 03:34:31;;;;;;;12.25;8.93;;;;;;;;;;5051843;28;21390;-69
2024/02/16 03:36:59;;;;;;;18.63;9.83;;;;;;;;;;5063091;28;20609;-69
2024/02/16 03:39:28;;;;;;;11.70;9.20;;;;;;;;;;5053257;28;20625;-69
2024/02/16 03:41:56;;;;;;;15.48;10.57;;;;;;;;;;5057634;28;20658;-69
2024/02/16 03:44:24;;;;;;;15.80;10.30;;;;;;;;;;5048930;28;20220;-69
2024/02/16 03:46:53;;;;;;;14.75;9.90;;;;;;;;;;5052124;28;20208;-69
2024/02/16 03:49:22;;;;;;;11.90;9.55;;;;;;;;;;5063492;28;20200;-69
2024/02/16 03:51:50;;;;;;;13.13;9.80;;;;;;;;;;5068758;28;20203;-69
2024/02/16 03:54:18;;;;;;;10.85;9.13;;;;;;;;;;5054019;28;20219;-69
2024/02/16 03:56:48;;;;;;;14.13;9.48;;;;;;;;;;5061661;28;20568;-70
2024/02/16 03:59:16;;;;;;;41.50;30.23;;;;;;;;;;5067256;28;20228;-70
2024/02/16 04:01:45;;;;;;;16.33;14.60;;;;;;;;;;5055624;28;20204;-70
2024/02/16 04:04:13;;;;;;;14.55;12.25;;;;;;;;;;5055289;28;20206;-70
2024/02/16 04:06:43;;;;;;;13.70;10.95;;;;;;;;;;5055594;28;20581;-69
2024/02/16 04:09:12;;;;;;;12.57;10.43;;;;;;;;;;5055120;28;20224;-70
2024/02/16 04:11:40;;;;;;;13.80;10.48;;;;;;;;;;5059965;28;20573;-70
2024/02/16 04:14:08;;;;;;;16.08;10.70;;;;;;;;;;5068299;28;20223;-70
2024/02/16 04:16:36;;;;;;;18.20;12.45;;;;;;;;;;5069031;28;20705;-70
2024/02/16 04:19:05;;;;;;;14.02;11.10;;;;;;;;;;5048479;28;20290;-70
2024/02/16 04:21:33;;;;;;;11.05;9.95;;;;;;;;;;5050769;28;20232;-70
2024/02/16 04:24:03;;;;;;;14.40;12.27;;;;;;;;;;5050308;28;20429;-70
2024/02/16 04:26:31;;;;;;;14.23;10.73;;;;;;;;;;5053385;28;20218;-70
2024/02/16 04:28:59;;;;;;;14.05;9.75;;;;;;;;;;5064787;28;20200;-70
2024/02/16 04:31:27;;;;;;;11.85;10.55;;;;;;;;;;5059333;28;20204;-70
2024/02/16 04:33:56;;;;;;;19.65;10.75;;;;;;;;;;5060909;28;20200;-69
2024/02/16 04:36:24;;;;;;;16.30;10.60;;;;;;;;;;5069230;28;20204;-70
2024/02/16 04:38:52;;;;;;;17.53;10.20;;;;;;;;;;5054452;28;20216;-69
2024/02/16 04:41:22;;;;;;;16.73;11.60;;;;;;;;;;5059757;28;20593;-70
2024/02/16 04:43:51;;;;;;;15.77;11.90;;;;;;;;;;5048575;28;20273;-69
2024/02/16 04:46:19;;;;;;;13.80;10.88;;;;;;;;;;5062852;28;20356;-70
2024/02/16 04:48:47;;;;;;;12.60;10.63;;;;;;;;;;5057830;28;20212;-70
2024/02/16 04:51:16;;;;;;;15.27;9.57;;;;;;;;;;5065348;28;20672;-70
2024/02/16 04:53:44;;;;;;;13.07;9.40;;;;;;;;;;5050905;28;20209;-69
2024/02/16 04:56:12;;;;;;;10.65;9.55;;;;;;;;;;5063913;28;20260;-70
2024/02/16 04:58:43;;;;;;;14.07;9.83;;;;;;;;;;5048679;28;20208;-70
2024/02/16 05:01:11;;;;;;;10.83;8.90;;;;;;;;;;5049629;28;20601;-70
2024/02/16 05:03:41;;;;;;;11.68;10.48;;;;;;;;;;5067335;28;20621;-69
2024/02/16 05:06:09;;;;;;;10.02;9.02;;;;;;;;;;5066980;28;20195;-69
2024/02/16 05:08:37;;;;;;;12.37;9.23;;;;;;;;;;5067249;28;20222;-70
2024/02/16 05:11:07;;;;;;;13.55;9.88;;;;;;;;;;5067722;28;20589;-70
2024/02/16 05:13:37;;;;;;;10.87;9.77;;;;;;;;;;5067331;28;20200;-70
2024/02/16 05:16:11;;;;;;;13.63;10.57;;;;;;;;;;5063834;28;20609;-69
2024/02/16 05:18:39;;;;;;;15.98;11.15;;;;;;;;;;5046889;28;20189;-69
2024/02/16 05:21:08;;;;;;;12.93;11.60;;;;;;;;;;5052067;28;20623;-70
2024/02/16 05:23:36;;;;;;;12.00;10.45;;;;;;;;;;5048252;28;20204;-69
2024/02/16 05:26:04;;;;;;;14.07;12.00;;;;;;;;;;5055791;28;20249;-69
2024/02/16 05:28:33;;;;;;;11.57;10.25;;;;;;;;;;5067542;28;20196;-70
2024/02/16 05:31:05;;;;;;;23.55;13.10;;;;;;;;;;5058744;28;20201;-69
2024/02/16 05:33:34;;;;;;;17.08;13.70;;;;;;;;;;5047909;28;20193;-69
2024/02/16 05:36:03;;;;;;;16.17;12.60;;;;;;;;;;5053391;28;20254;-69
2024/02/16 05:38:40;;;;;;;16.38;12.10;;;;;;;;;;5052717;28;20196;-70
2024/02/16 05:41:08;;;;;;;16.35;10.80;;;;;;;;;;5051315;28;20679;-69
2024/02/16 05:43:37;;;;;;;16.80;9.98;;;;;;;;;;5055454;28;20285;-69
2024/02/16 05:46:06;;;;;;;18.08;9.82;;;;;;;;;;5060564;28;20551;-69
2024/02/16 05:48:39;;;;;;;16.13;10.05;;;;;;;;;;5056988;28;20199;-69
2024/02/16 05:51:08;;;;;;;13.25;11.50;;;;;;;;;;5047566;28;20193;-69
2024/02/16 05:53:36;;;;;;;13.95;9.60;;;;;;;;;;5050510;28;20206;-69
2024/02/16 05:56:05;;;;;;;12.30;10.90;;;;;;;;;;5045172;28;20223;-69
2024/02/16 05:58:34;;;;;;;12.43;9.93;;;;;;;;;;5056967;28;20537;-70
2024/02/16 06:01:03;;;;;;;13.68;10.40;;;;;;;;;;5052134;28;20682;-69
2024/02/16 06:03:31;;;;;;;13.60;11.13;;;;;;;;;;5059307;28;20197;-69
2024/02/16 06:06:01;;;;;;;16.75;11.65;;;;;;;;;;5047439;28;20224;-70
2024/02/16 06:08:29;;;;;;;12.57;10.38;;;;;;;;;;5046685;28;20204;-70
2024/02/16 06:10:57;;;;;;;13.40;9.25;;;;;;;;;;5053973;28;20204;-69
2024/02/16 06:13:25;;;;;;;13.32;10.15;;;;;;;;;;5066324;28;20321;-71
2024/02/16 06:15:54;;;;;;;11.00;9.68;;;;;;;;;;5053478;28;20658;-69
2024/02/16 06:18:22;;;;;;;13.57;9.65;;;;;;;;;;5061970;28;20609;-69
2024/02/16 06:20:51;;;;;;;10.13;9.23;;;;;;;;;;5053650;28;20226;-69
2024/02/16 06:23:21;;;;;;;12.10;9.60;;;;;;;;;;5059620;28;20209;-69
2024/02/16 06:25:49;;;;;;;12.20;9.75;;;;;;;;;;5052923;28;20649;-69
2024/02/16 06:28:17;;;;;;;15.32;9.98;;;;;;;;;;5050560;28;20265;-70
2024/02/16 06:30:46;;;;;;;14.65;10.32;;;;;;;;;;5046240;28;20651;-69
2024/02/16 06:33:14;;;;;;;15.55;9.85;;;;;;;;;;5059270;28;20233;-68
2024/02/16 06:35:42;;;;;;;13.35;9.95;;;;;;;;;;5067031;28;20611;-69
2024/02/16 06:38:10;;;;;;;15.13;11.13;;;;;;;;;;5064755;28;20436;-69
2024/02/16 06:40:40;;;;;;;11.27;9.80;;;;;;;;;;5059061;28;20216;-69
2024/02/16 06:43:08;;;;;;;14.70;10.10;;;;;;;;;;5059820;28;20226;-68
2024/02/16 06:45:36;;;;;;;13.48;10.27;;;;;;;;;;5057043;28;20238;-69
2024/02/16 06:48:05;;;;;;;19.20;10.90;;;;;;;;;;5054013;28;20219;-69
2024/02/16 06:50:33;;;;;;;13.65;10.30;;;;;;;;;;5051665;28;20215;-69
2024/02/16 06:53:01;;;;;;;13.13;10.50;;;;;;;;;;5064102;28;20191;-69
2024/02/16 06:55:29;;;;;;;13.02;10.40;;;;;;;;;;5055402;28;20659;-68
2024/02/16 06:57:59;;;;;;;14.23;11.27;;;;;;;;;;5055819;28;20646;-69
2024/02/16 07:00:27;;;;;;;12.15;9.60;;;;;;;;;;5060854;28;20623;-69
2024/02/16 07:02:56;;;;;;;13.90;10.10;;;;;;;;;;5049897;28;20740;-69
2024/02/16 07:05:24;;;;;;;15.82;11.13;;;;;;;;;;5057378;28;20622;-68
2024/02/16 07:07:52;;;;;;;12.52;10.65;;;;;;;;;;5069978;28;20204;-68
2024/02/16 07:10:20;;;;;;;10.60;9.48;;;;;;;;;;5070408;28;20210;-67
2024/02/16 07:12:48;;;;;;;10.45;9.35;;;;;;;;;;5069986;28;20568;-68
2024/02/16 07:15:18;;;;;;;16.30;9.70;;;;;;;;;;5064301;28;20204;-69
2024/02/16 07:17:46;;;;;;;11.23;9.32;;;;;;;;;;5068764;28;20214;-68
2024/02/16 07:20:15;;;;;;;12.00;9.02;;;;;;;;;;5068921;28;20241;-68
2024/02/16 08:59:41;;;;;;;9.13;6.70;;;;;;;;;;4968878;28;20625;-68
2024/02/16 09:02:09;;;;;;;8.43;7.07;;;;;;;;;;4963577;28;21025;-69
2024/02/16 09:04:38;;;;;;;7.20;6.20;;;;;;;;;;4973695;28;20586;-69
2024/02/16 09:07:06;;;;;;;6.50;5.90;;;;;;;;;;4973050;28;21485;-68
2024/02/16 09:09:34;;;;;;;10.83;6.57;;;;;;;;;;4973312;28;20579;-69
2024/02/16 09:12:02;;;;;;;7.83;6.70;;;;;;;;;;4971236;28;20623;-68
2024/02/16 09:14:31;;;;;;;8.80;6.63;;;;;;;;;;4970118;28;21168;-69
2024/02/16 09:17:01;;;;;;;7.33;6.10;;;;;;;;;;4970391;28;20625;-69
2024/02/16 09:19:29;;;;;;;6.67;6.00;;;;;;;;;;4970424;28;20623;-69
2024/02/16 09:21:58;;;;;;;9.73;7.53;;;;;;;;;;4971521;28;20657;-69
2024/02/16 09:24:29;;;;;;;7.77;7.03;;;;;;;;;;4970535;28;20587;-69
2024/02/16 09:26:57;;;;;;;7.77;7.00;;;;;;;;;;4971403;28;20623;-69
2024/02/16 09:29:25;;;;;;;8.10;7.30;;;;;;;;;;4953540;28;20629;-69
2024/02/16 09:31:54;;;;;;;8.50;7.80;;;;;;;;;;4970130;28;20618;-69
2024/02/16 09:34:23;;;;;;;8.30;7.40;;;;;;;;;;4970393;28;20661;-69
2024/02/16 09:36:51;;;;;;;9.57;7.33;;;;;;;;;;4953762;28;21206;-70
2024/02/16 09:39:20;;;;;;;8.67;7.80;;;;;;;;;;4953335;28;20632;-71
2024/02/16 09:41:51;;;;;;;8.47;7.77;;;;;;;;;;4946841;28;20666;-69
2024/02/16 09:44:21;;;;;;;10.53;7.90;;;;;;;;;;4947734;28;20613;-69
2024/02/16 09:46:49;;;;;;;9.13;7.90;;;;;;;;;;4947147;28;20693;-69
2024/02/16 09:49:17;;;;;;;8.93;8.20;;;;;;;;;;4948341;28;20617;-70
2024/02/16 09:51:47;;;;;;;8.40;7.80;;;;;;;;;;4947972;28;20611;-70
2024/02/16 09:54:15;;;;;;;9.63;8.67;;;;;;;;;;4947617;28;20653;-69
2024/02/16 09:56:44;;;;;;;9.20;8.30;;;;;;;;;;4951990;28;20662;-69
2024/02/16 09:59:12;;;;;;;8.47;7.70;;;;;;;;;;4965259;28;20734;-70
2024/02/16 10:01:41;;;;;;;9.70;7.63;;;;;;;;;;4946268;28;21020;-70
2024/02/16 10:04:09;;;;;;;8.90;8.20;;;;;;;;;;4947102;28;20640;-70
2024/02/16 10:06:48;;;;;;;9.00;8.40;;;;;;;;;;4965997;28;20632;-70
2024/02/16 10:09:26;;;;;;;8.50;7.80;;;;;;;;;;4965666;28;20598;-71
2024/02/16 10:11:55;;;;;;;9.00;8.37;;;;;;;;;;4962510;28;21018;-70
2024/02/16 10:14:24;;;;;;;8.40;7.70;;;;;;;;;;4965119;28;20602;-70
2024/02/16 10:17:02;;;;;;;8.80;8.10;;;;;;;;;;4962779;28;20625;-70
2024/02/16 10:19:36;;;;;;;9.37;8.70;;;;;;;;;;4962040;28;21235;-70
2024/02/16 10:22:10;;;;;;;10.10;9.40;;;;;;;;;;4942423;28;20669;-70
2024/02/16 10:24:39;;;;;;;10.33;9.47;;;;;;;;;;4962042;28;20737;-69
2024/02/16 10:27:07;;;;;;;10.10;9.50;;;;;;;;;;4945888;28;20962;-70
2024/02/16 10:29:36;;;;;;;9.60;9.00;;;;;;;;;;4965763;28;20895;-70
2024/02/16 10:32:04;;;;;;;10.50;9.77;;;;;;;;;;4965166;28;20712;-71
2024/02/16 10:34:33;;;;;;;14.53;9.20;;;;;;;;;;4964945;28;20622;-71
2024/02/16 10:37:01;;;;;;;9.20;8.50;;;;;;;;;;4963804;28;20680;-71
2024/02/16 10:39:31;;;;;;;10.00;9.40;;;;;;;;;;4965234;28;20618;-68
2024/02/16 10:42:00;;;;;;;9.50;8.73;;;;;;;;;;4971335;28;20672;-68
2024/02/16 10:44:29;;;;;;;9.60;8.80;;;;;;;;;;4984367;28;20665;-69
2024/02/16 10:46:57;;;;;;;9.50;8.90;;;;;;;;;;4975577;28;20629;-69
2024/02/16 10:49:25;;;;;;;8.93;8.53;;;;;;;;;;4966171;28;20952;-69
2024/02/16 10:51:55;;;;;;;9.57;8.77;;;;;;;;;;4965190;28;20618;-70
2024/02/16 10:54:24;;;;;;;9.77;9.07;;;;;;;;;;4948674;28;20948;-71
2024/02/16 10:56:55;;;;;;;9.50;8.80;;;;;;;;;;4965313;28;20653;-69
2024/02/16 10:59:24;;;;;;;9.67;9.00;;;;;;;;;;4946784;28;21010;-68
2024/02/16 11:02:01;;;;;;;10.13;9.33;;;;;;;;;;4943881;28;21022;-69
2024/02/16 11:04:38;;;;;;;9.93;9.40;;;;;;;;;;4944901;28;20598;-69
2024/02/16 11:07:12;;;;;;;9.80;9.17;;;;;;;;;;4946459;28;20651;-69
2024/02/16 11:09:40;;;;;;;10.50;9.80;;;;;;;;;;4946344;28;20936;-69
2024/02/16 11:12:11;;;;;;;8.75;8.05;;;;;;;;;;4944411;28;21772;-68
2024/02/16 11:14:40;;;;;;;10.53;9.57;;;;;;;;;;4946753;28;20195;-69
2024/02/16 11:17:11;;;;;;;9.80;9.10;;;;;;;;;;4945654;28;20712;-71
2024/02/16 11:19:42;;;;;;;10.07;9.30;;;;;;;;;;4946753;28;20750;-69
2024/02/16 11:22:11;;;;;;;9.60;9.10;;;;;;;;;;4946056;28;21047;-71
2024/02/16 11:24:44;;;;;;;10.20;9.57;;;;;;;;;;4949449;28;20595;-70
2024/02/16 11:27:15;;;;;;;10.17;9.47;;;;;;;;;;4950155;28;20630;-69
2024/02/16 11:29:43;;;;;;;9.30;8.80;;;;;;;;;;4950202;28;20656;-70
2024/02/16 11:32:12;;;;;;;10.43;9.70;;;;;;;;;;4931140;28;21136;-70
2024/02/16 11:34:40;;;;;;;9.20;8.60;;;;;;;;;;4950320;28;20582;-68
2024/02/16 11:37:08;;;;;;;9.27;8.57;;;;;;;;;;4950633;28;20677;-69
2024/02/16 11:39:38;;;;;;;8.83;8.27;;;;;;;;;;4950437;28;20621;-69
2024/02/16 11:42:06;;;;;;;9.93;9.30;;;;;;;;;;4932784;28;20707;-70
2024/02/16 11:44:39;;;;;;;11.30;9.53;;;;;;;;;;4932791;28;20635;-71
2024/02/16 11:47:12;;;;;;;9.53;8.87;;;;;;;;;;4950217;28;20618;-70
2024/02/16 11:49:40;;;;;;;8.70;8.30;;;;;;;;;;4948599;28;20992;-71
2024/02/16 11:52:09;;;;;;;9.60;9.00;;;;;;;;;;4949148;28;20599;-70
2024/02/16 11:54:37;;;;;;;9.50;9.00;;;;;;;;;;4952578;28;20632;-70
2024/02/16 11:57:06;;;;;;;9.10;8.60;;;;;;;;;;4937608;28;20729;-70
2024/02/16 11:59:35;;;;;;;9.57;8.70;;;;;;;;;;4946329;28;20654;-72
2024/02/16 12:02:04;;;;;;;10.07;9.47;;;;;;;;;;4959759;28;21252;-70
2024/02/16 12:04:32;;;;;;;10.33;9.40;;;;;;;;;;4969102;28;21260;-71
2024/02/16 12:07:01;;;;;;;9.77;8.80;;;;;;;;;;4968601;28;20602;-70
2024/02/16 12:09:29;;;;;;;10.53;9.53;;;;;;;;;;4969351;28;20989;-69
2024/02/16 12:11:57;;;;;;;9.87;9.37;;;;;;;;;;4968014;28;20590;-70
2024/02/16 12:14:26;;;;;;;10.80;9.77;;;;;;;;;;4977444;28;21160;-70
2024/02/16 12:16:57;;;;;;;9.73;9.20;;;;;;;;;;4997459;28;20607;-73
2024/02/16 12:19:25;;;;;;;9.10;8.47;;;;;;;;;;4990296;28;20583;-69
2024/02/16 12:21:54;;;;;;;9.27;8.63;;;;;;;;;;4986954;28;21416;-71
2024/02/16 12:24:22;;;;;;;10.10;9.40;;;;;;;;;;4982430;28;20606;-72
2024/02/16 12:26:51;;;;;;;10.67;9.57;;;;;;;;;;4959298;28;20989;-69
2024/02/16 12:29:19;;;;;;;9.57;8.83;;;;;;;;;;4967762;28;21199;-72
2024/02/16 12:31:49;;;;;;;9.73;8.93;;;;;;;;;;4949072;28;21272;-70
2024/02/16 12:34:18;;;;;;;10.27;9.37;;;;;;;;;;4981961;28;20624;-71
2024/02/16 12:36:47;;;;;;;9.90;9.20;;;;;;;;;;4979670;28;20634;-71
2024/02/16 12:39:15;;;;;;;9.10;8.60;;;;;;;;;;4970335;28;20670;-71
2024/02/16 12:41:44;;;;;;;9.90;9.30;;;;;;;;;;4970369;28;21138;-70
2024/02/16 12:44:12;;;;;;;9.40;8.90;;;;;;;;;;4976231;28;21421;-68
2024/02/16 12:46:40;;;;;;;10.53;9.50;;;;;;;;;;4984188;28;20598;-71
2024/02/16 12:49:08;;;;;;;10.17;9.23;;;;;;;;;;4965337;28;20637;-68
2024/02/16 12:51:38;;;;;;;9.20;8.40;;;;;;;;;;4983261;28;20624;-70
2024/02/16 12:54:07;;;;;;;8.87;8.00;;;;;;;;;;4971163;28;20874;-71
2024/02/16 12:56:35;;;;;;;8.53;7.83;;;;;;;;;;4959686;28;21205;-71
2024/02/16 12:59:03;;;;;;;8.93;8.30;;;;;;;;;;4944019;28;20664;-68
2024/02/16 13:01:31;;;;;;;9.17;8.47;;;;;;;;;;4962917;28;20674;-68
2024/02/16 13:04:00;;;;;;;8.67;7.87;;;;;;;;;;4971272;28;21060;-69
2024/02/16 13:06:28;;;;;;;8.57;8.03;;;;;;;;;;4963522;28;20624;-69
2024/02/16 13:08:58;;;;;;;8.80;8.27;;;;;;;;;;4964814;28;20622;-69
2024/02/16 13:11:26;;;;;;;8.60;8.10;;;;;;;;;;4966349;28;20602;-69
2024/02/16 13:13:54;;;;;;;8.47;7.90;;;;;;;;;;4972097;28;20617;-69
2024/02/16 13:16:23;;;;;;;8.17;7.60;;;;;;;;;;4961911;28;20621;-69
2024/02/16 13:18:51;;;;;;;8.37;7.87;;;;;;;;;;4963631;28;20640;-69
2024/02/16 13:21:19;;;;;;;7.97;7.33;;;;;;;;;;4963570;28;21209;-70
2024/02/16 13:23:47;;;;;;;8.30;7.67;;;;;;;;;;4965108;28;20652;-68
2024/02/16 13:26:17;;;;;;;8.40;7.90;;;;;;;;;;4966884;28;20597;-69
2024/02/16 13:28:45;;;;;;;9.80;8.00;;;;;;;;;;4964243;28;20587;-70
2024/02/16 13:31:13;;;;;;;7.87;7.33;;;;;;;;;;4963037;28;20640;-69
2024/02/16 13:33:42;;;;;;;7.40;7.00;;;;;;;;;;4963145;28;20610;-72
2024/02/16 13:36:10;;;;;;;7.60;7.10;;;;;;;;;;4954840;28;20630;-68
2024/02/16 13:38:39;;;;;;;12.13;11.00;;;;;;;;;;4960397;28;20656;-69
2024/02/16 13:41:07;;;;;;;12.00;11.30;;;;;;;;;;4960365;28;20613;-71
2024/02/16 13:43:37;;;;;;;8.27;7.60;;;;;;;;;;4965194;28;20651;-68
2024/02/16 13:46:05;;;;;;;7.70;7.07;;;;;;;;;;4963512;28;20668;-69
2024/02/16 13:48:37;;;;;;;7.83;7.40;;;;;;;;;;4963302;28;20593;-69
2024/02/16 13:51:06;;;;;;;7.60;7.10;;;;;;;;;;4959463;28;21502;-70
2024/02/16 13:53:35;;;;;;;7.60;7.00;;;;;;;;;;4963478;28;20959;-69
2024/02/16 13:56:04;;;;;;;7.53;7.20;;;;;;;;;;4944361;28;21207;-68
2024/02/16 13:58:34;;;;;;;7.77;7.47;;;;;;;;;;4953301;28;20665;-69
2024/02/16 14:01:04;;;;;;;8.00;7.60;;;;;;;;;;4925316;28;21223;-68
2024/02/16 14:03:32;;;;;;;8.90;8.30;;;;;;;;;;4938795;28;20651;-70
2024/02/16 14:06:01;;;;;;;8.80;8.27;;;;;;;;;;4925096;28;21099;-68
2024/02/16 14:08:30;;;;;;;8.27;7.40;;;;;;;;;;4950164;28;20649;-71
2024/02/16 14:10:58;;;;;;;6.90;6.40;;;;;;;;;;4949477;28;21033;-71
2024/02/16 14:13:26;;;;;;;7.47;6.87;;;;;;;;;;4944585;28;20582;-71
2024/02/16 14:15:54;;;;;;;9.70;8.90;;;;;;;;;;4952880;28;20641;-71
2024/02/16 14:18:24;;;;;;;8.20;7.50;;;;;;;;;;4960464;28;20578;-68
2024/02/16 14:20:52;;;;;;;7.40;6.70;;;;;;;;;;4938473;28;21035;-68
2024/02/16 14:23:20;;;;;;;7.50;7.00;;;;;;;;;;4945372;28;20670;-72
2024/02/16 14:25:48;;;;;;;7.63;7.20;;;;;;;;;;4932060;28;20632;-68
2024/02/16 14:28:17;;;;;;;7.70;6.83;;;;;;;;;;4945190;28;21194;-69
2024/02/16 14:30:45;;;;;;;6.80;6.30;;;;;;;;;;4939019;28;20621;-68
2024/02/16 14:33:16;;;;;;;6.37;5.77;;;;;;;;;;4941461;28;20648;-69
2024/02/16 14:35:48;;;;;;;5.67;5.37;;;;;;;;;;4923080;28;20638;-69
2024/02/16 14:38:16;;;;;;;6.50;5.20;;;;;;;;;;4922721;28;20756;-70
2024/02/16 14:40:44;;;;;;;8.40;5.50;;;;;;;;;;4946809;28;20630;-70
2024/02/16 14:43:13;;;;;;;6.00;5.37;;;;;;;;;;4942581;28;20655;-70
2024/02/16 14:45:41;;;;;;;4.40;4.10;;;;;;;;;;4939701;28;20630;-67
2024/02/16 14:48:11;;;;;;;3.77;3.40;;;;;;;;;;4942911;28;20787;-68
2024/02/16 14:50:40;;;;;;;2.50;2.30;;;;;;;;;;4924904;28;20631;-69
2024/02/16 14:53:10;;;;;;;3.00;2.40;;;;;;;;;;4941775;28;20618;-69
2024/02/16 14:55:38;;;;;;;3.60;2.20;;;;;;;;;;4941840;28;20619;-69
2024/02/16 14:58:06;;;;;;;2.47;2.10;;;;;;;;;;4925526;28;20669;-68
2024/02/16 15:00:35;;;;;;;2.83;2.00;;;;;;;;;;4946615;28;20632;-67
2024/02/16 15:03:04;;;;;;;3.57;2.63;;;;;;;;;;4945594;28;20706;-67
2024/02/16 15:05:32;;;;;;;2.37;2.17;;;;;;;;;;4945853;28;20626;-68
2024/02/16 15:08:01;;;;;;;3.70;3.10;;;;;;;;;;4947698;28;20605;-66
2024/02/16 15:10:31;;;;;;;3.70;2.60;;;;;;;;;;4948091;28;20677;-70
2024/02/16 15:13:00;;;;;;;2.63;2.43;;;;;;;;;;4948167;28;20594;-67
2024/02/16 15:15:28;;;;;;;4.53;2.57;;;;;;;;;;4948843;28;20618;-67
2024/02/16 15:18:00;;;;;;;2.70;2.43;;;;;;;;;;4945953;28;21192;-67
2024/02/16 15:20:28;;;;;;;3.70;3.17;;;;;;;;;;4952320;28;21072;-67
2024/02/16 15:22:56;;;;;;;4.90;2.90;;;;;;;;;;4947757;28;20945;-68
2024/02/16 15:25:25;;;;;;;3.20;2.90;;;;;;;;;;4946798;28;20660;-65
2024/02/16 15:27:55;;;;;;;4.83;2.40;;;;;;;;;;4966144;28;20572;-67
2024/02/16 15:30:26;;;;;;;2.80;2.30;;;;;;;;;;4968484;28;20623;-69
2024/02/16 15:32:55;;;;;;;2.23;2.13;;;;;;;;;;5504164;23;21787;-71
2024/02/16 15:35:23;;;;;;;4.07;3.20;;;;;;;;;;4960142;28;21121;-71
2024/02/16 15:37:52;;;;;;;2.90;2.67;;;;;;;;;;4956412;28;20640;-69
2024/02/16 15:40:20;;;;;;;2.43;2.23;;;;;;;;;;4971046;28;20609;-69
2024/02/16 15:43:02;;;;;;;4.83;2.53;;;;;;;;;;4967203;28;20997;-69
2024/02/16 15:45:30;;;;;;;3.60;2.30;;;;;;;;;;4970398;28;20616;-69
2024/02/16 15:47:58;;;;;;;2.80;2.60;;;;;;;;;;4974671;28;20622;-70
2024/02/16 15:50:26;;;;;;;2.60;2.27;;;;;;;;;;4970649;28;20631;-70
2024/02/16 15:52:55;;;;;;;8.30;3.17;;;;;;;;;;4966977;28;20596;-71
2024/02/16 15:55:23;;;;;;;7.30;4.10;;;;;;;;;;4962488;28;20636;-70
2024/02/16 15:57:51;;;;;;;4.57;2.57;;;;;;;;;;4958821;28;21183;-70
2024/02/16 16:00:21;;;;;;;3.47;2.50;;;;;;;;;;4956747;28;20738;-70
2024/02/16 16:02:50;;;;;;;2.63;2.43;;;;;;;;;;4966889;28;20696;-69
2024/02/16 16:05:18;;;;;;;5.20;3.37;;;;;;;;;;4973142;28;20695;-69
2024/02/16 16:07:46;;;;;;;6.87;2.43;;;;;;;;;;4966103;28;20645;-69
2024/02/16 16:10:16;;;;;;;3.80;3.40;;;;;;;;;;4964406;28;21788;-69
2024/02/16 16:12:44;;;;;;;5.87;2.83;;;;;;;;;;4964163;28;20614;-72
2024/02/16 16:15:13;;;;;;;2.50;2.30;;;;;;;;;;4966297;28;20625;-71
2024/02/16 16:17:43;;;;;;;3.90;2.70;;;;;;;;;;4990660;28;20648;-73
2024/02/16 16:20:12;;;;;;;5.10;2.80;;;;;;;;;;4997834;28;21024;-72
2024/02/16 16:22:40;;;;;;;3.93;2.53;;;;;;;;;;4975501;28;20626;-73